Camarillo, CA

7:14 AM PDT on September 22, 2014 (GMT -0700)
Oxnard | Change Station
CLOSE
Current Station
Airport
Location: Oxnard,
Elevation: 43 ft
Nearby Weather Stations

Elev 43 ft 34.20 °N, 119.20 °W | Updated 23 minutes ago

Clear
Clear
58 °F
Feels Like 58 °F
N
4
Wind Variable Wind from ENE

Today
High -- | Low -- °F
--% Chance of Precip.
Yesterday
High -- | Low -- °F
Precip. -- in
6:44 AM 6:52 PM
Waning Crescent, 3% visible
Pressure 29.95 in
Visibility 8.0 miles
Clouds Clear
Dew Point 55 °F
Humidity 90%
Rainfall 0.00 in
Snow Depth 0 in , 0 in , 0 in
UV 0 out of 12
Pollen 6.80 out of 12
Ozone Good
PM2.5 Good
Flu Activity Not available.
METAR KOXR 221351Z 07003KT 8SM CLR 14/13 A2995 RMK AO2 SLP141 T01440128

More Conditions Fewer Conditions

Pressure 29.95 in
Visibility 8.0 miles
Clouds Clear
Dew Point 55 °F
Humidity 90%
Rainfall 0.00 in
Snow Depth 0 in , 0 in , 0 in
UV 0 out of 12
Pollen 6.80 out of 12
Ozone Good
PM2.5 Good
Flu Activity Not available.
METAR KOXR 221351Z 07003KT 8SM CLR 14/13 A2995 RMK AO2 SLP141 T01440128

More Conditions Fewer Conditions

10-Day Weather Forecast

Almanac

Astronomy

Sep. 22, 2014 Rise Set
Actual Time 6:44 AM PDT 6:52 PM PDT
Civil Twilight 6:19 AM PDT 7:17 PM PDT
Nautical Twilight 5:49 AM PDT 7:46 PM PDT
Astronomical Twilight 5:20 AM PDT 8:16 PM PDT
Moon 5:20 AM PDT 6:01 PM PDT
Length of Visible Light 12h 58m
Length of Day
12h 08m
Tomorrow will be 2m 6s shorter.
Waning Crescent, 3% of the Moon is Illuminated
Today
Waning Crescent
Sep 24
New
Oct 1
First Quarter
Oct 8
Full
Oct 15
Last Quarter

Today's Extremes

State Highs State Lows

Community

WunderPhotos

Upload Photos

1,755,444 photos uploaded!

WunderBlogs® & News

By Dr. Jeff Masters
Director of Meteorology, Weather Underground
By Kari Strenfel
Meteorologist, Weather Underground
By Christopher C. Burt
Weather Historian, Weather Underground
September 22, 2014
September 22, 2014
September 22, 2014

Nearby

Air Quality

  Air Quality AQ Index Pollutant
Yesterday Good
PM2.5
Yesterday Good
OZONE
Current Good
OZONE
Current Good
PM2.5
Monday Good
OZONE
Monday Good
PM2.5
Tuesday Moderate
PM2.5
Tuesday Good
OZONE
Wednesday Moderate
PM2.5
Wednesday Good
OZONE

Snow Depth

Station Depth Elevation
Tahoe City Cross 0 in 6750 ft
Crowder Flat 0 in 5100 ft
Sonora Pass 0 in 8800 ft
Burnside Lake 1 in 8139 ft
Echo Peak 1 in 7800 ft

Earthquake Activity

City Distance Mag. Time & Date
Inyokern, California 141 miles 3.1 5:33 PM PDT
2014-09-19
Corcoran, California 131 miles 2.9 3:59 PM PDT
2014-09-18
Minimum magnitude displayed is 2.5.

Coastal Water Temperatures

Place Temperature
Santa Monica Pier 69.1 °F
Los Angeles, CA 66.9 °F
Port San Luis, CA 61.0 °F

Nearby Weather Stations